createdAt,value
2023-05-19T00:00:37.276Z,83.55
2023-05-19T00:03:05.333Z,83.90
2023-05-19T00:05:33.583Z,84.83
2023-05-19T00:08:01.895Z,84.96
2023-05-19T00:10:31.985Z,84.49
2023-05-19T00:13:00.076Z,83.99
2023-05-19T00:15:27.789Z,84.70
2023-05-19T00:17:55.652Z,85.46
2023-05-19T00:20:23.126Z,87.17
2023-05-19T00:22:51.659Z,86.59
2023-05-19T00:25:19.103Z,85.45
2023-05-19T00:27:46.645Z,85.75
2023-05-19T00:30:14.393Z,87.26
2023-05-19T00:32:42.076Z,87.62
2023-05-19T00:35:09.875Z,88.10
2023-05-19T00:37:37.784Z,88.36
2023-05-19T00:40:06.706Z,89.45
2023-05-19T00:42:34.355Z,90.98
2023-05-19T00:45:01.759Z,91.72
2023-05-19T00:47:29.422Z,91.92
2023-05-19T00:49:56.982Z,93.47
2023-05-19T00:52:25.204Z,94.28
2023-05-19T00:54:53.993Z,93.11
2023-05-19T00:57:22.134Z,93.95
2023-05-19T00:59:49.672Z,94.75
2023-05-19T01:02:18.187Z,94.91
2023-05-19T01:04:47.085Z,94.51
2023-05-19T01:07:16.518Z,95.92
2023-05-19T01:09:44.665Z,96.16
2023-05-19T01:12:12.193Z,97.97
2023-05-19T01:14:39.510Z,98.84
2023-05-19T01:17:16.021Z,97.46
2023-05-19T01:20:14.853Z,98.27
2023-05-19T01:23:20.432Z,98.69
2023-05-19T01:26:04.750Z,98.71
2023-05-19T01:28:45.092Z,99.90
2023-05-19T01:31:13.185Z,100.00
2023-05-19T01:33:43.672Z,100.00
2023-05-19T01:36:12.431Z,100.00
2023-05-19T01:38:40.733Z,100.00
2023-05-19T01:41:09.753Z,100.00
2023-05-19T01:43:37.849Z,100.00
2023-05-19T01:46:07.250Z,100.00
2023-05-19T01:48:34.989Z,100.00
2023-05-19T01:51:02.604Z,100.00
2023-05-19T01:53:30.095Z,100.00
2023-05-19T01:55:58.037Z,100.00
2023-05-19T01:58:37.781Z,100.00
2023-05-19T02:01:22.363Z,100.00
2023-05-19T02:04:18.623Z,100.00
2023-05-19T02:06:58.333Z,100.00
2023-05-19T02:09:30.763Z,100.00
2023-05-19T02:12:37.826Z,100.00
2023-05-19T02:15:16.042Z,100.00
2023-05-19T02:17:50.743Z,100.00
2023-05-19T02:20:19.363Z,100.00
2023-05-19T02:22:47.141Z,100.00
2023-05-19T02:25:14.792Z,100.00
2023-05-19T02:27:42.607Z,100.00
2023-05-19T02:30:11.067Z,100.00
2023-05-19T02:32:38.606Z,100.00
2023-05-19T02:35:06.686Z,100.00
2023-05-19T02:37:35.455Z,100.00
2023-05-19T02:40:02.994Z,100.00
2023-05-19T02:42:31.482Z,100.00
2023-05-19T02:45:00.952Z,100.00
2023-05-19T02:47:28.610Z,100.00
2023-05-19T02:49:56.132Z,100.00
2023-05-19T02:52:23.556Z,100.00
2023-05-19T02:54:51.532Z,100.00
2023-05-19T02:57:19.066Z,100.00
2023-05-19T02:59:46.729Z,100.00
2023-05-19T03:02:14.389Z,100.00
2023-05-19T03:04:43.131Z,100.00
2023-05-19T03:07:10.876Z,100.00
2023-05-19T03:09:38.546Z,100.00
2023-05-19T03:12:07.766Z,100.00
2023-05-19T03:14:37.849Z,100.00
2023-05-19T03:17:07.937Z,100.00
2023-05-19T03:19:35.925Z,100.00
2023-05-19T03:22:03.870Z,100.00
2023-05-19T03:24:31.918Z,100.00
2023-05-19T03:26:59.401Z,100.00
2023-05-19T03:29:27.107Z,100.00
2023-05-19T03:31:55.188Z,100.00
2023-05-19T03:34:22.845Z,100.00
2023-05-19T03:36:51.338Z,100.00
2023-05-19T03:39:18.949Z,100.00
2023-05-19T03:41:49.021Z,100.00
2023-05-19T03:44:16.755Z,100.00
2023-05-19T03:46:44.619Z,100.00
2023-05-19T03:49:34.300Z,100.00
2023-05-19T03:52:28.104Z,100.00
2023-05-19T03:55:04.473Z,100.00
2023-05-19T03:57:32.256Z,100.00
2023-05-19T03:59:59.906Z,100.00
2023-05-19T04:02:27.546Z,100.00
2023-05-19T04:04:55.245Z,100.00
2023-05-19T04:07:23.350Z,100.00
2023-05-19T04:09:51.021Z,100.00
2023-05-19T04:12:18.540Z,100.00
2023-05-19T04:14:46.092Z,100.00
2023-05-19T04:17:13.847Z,100.00
2023-05-19T04:19:41.496Z,100.00
2023-05-19T04:22:08.982Z,100.00
2023-05-19T04:24:37.135Z,100.00
2023-05-19T04:27:04.946Z,100.00
2023-05-19T04:29:32.700Z,100.00
2023-05-19T04:32:01.164Z,100.00
2023-05-19T04:34:29.187Z,100.00
2023-05-19T04:36:57.565Z,100.00
2023-05-19T04:39:25.112Z,100.00
2023-05-19T04:41:54.221Z,100.00
2023-05-19T04:44:21.757Z,100.00
2023-05-19T04:46:54.560Z,100.00
2023-05-19T04:49:24.508Z,100.00
2023-05-19T04:51:55.583Z,100.00
2023-05-19T04:54:27.028Z,100.00
2023-05-19T04:56:55.332Z,95.55
2023-05-19T04:59:23.367Z,85.44
2023-05-19T05:01:51.285Z,82.64
2023-05-19T05:04:20.125Z,78.01
2023-05-19T05:06:48.840Z,73.97
2023-05-19T05:09:17.227Z,70.87
2023-05-19T05:11:45.475Z,67.68
2023-05-19T05:14:13.300Z,64.42
2023-05-19T05:16:43.650Z,60.38
2023-05-19T05:19:15.557Z,58.01
2023-05-19T05:21:43.436Z,56.97
2023-05-19T05:24:11.874Z,54.69
2023-05-19T05:26:40.290Z,55.64
2023-05-19T05:29:09.068Z,55.51
2023-05-19T05:31:37.277Z,54.02
2023-05-19T05:34:04.980Z,51.97
2023-05-19T05:36:35.143Z,50.93
2023-05-19T05:39:03.033Z,49.60
2023-05-19T05:41:35.384Z,48.63
2023-05-19T05:44:09.497Z,47.27
2023-05-19T05:46:39.818Z,46.82
2023-05-19T05:49:07.810Z,46.06
2023-05-19T05:51:35.987Z,45.55
2023-05-19T05:54:06.768Z,44.85
2023-05-19T05:56:38.711Z,45.39
2023-05-19T05:59:08.850Z,45.17
2023-05-19T06:01:36.818Z,44.80
2023-05-19T06:04:06.931Z,44.52
2023-05-19T06:06:36.077Z,43.40
2023-05-19T06:09:04.110Z,42.33
2023-05-19T06:11:31.827Z,42.01
2023-05-19T06:14:00.329Z,42.20
2023-05-19T06:16:54.519Z,41.47
2023-05-19T06:19:22.293Z,41.68
2023-05-19T06:21:49.813Z,41.00
2023-05-19T06:24:17.552Z,40.64
2023-05-19T06:26:45.142Z,39.92
2023-05-19T06:29:12.661Z,39.17
2023-05-19T06:31:40.518Z,38.93
2023-05-19T06:34:16.389Z,39.36
2023-05-19T06:36:45.226Z,39.18
2023-05-19T06:39:13.663Z,39.23
2023-05-19T06:41:41.468Z,38.31
2023-05-19T06:44:09.412Z,38.04
2023-05-19T06:46:37.070Z,38.87
2023-05-19T06:49:05.195Z,39.60
2023-05-19T06:51:38.086Z,39.83
2023-05-19T06:54:05.748Z,39.71
2023-05-19T06:56:33.236Z,40.20
2023-05-19T06:59:00.775Z,39.73
2023-05-19T07:01:34.407Z,39.32
2023-05-19T07:04:02.392Z,38.77
2023-05-19T07:06:31.388Z,38.69
2023-05-19T07:09:05.626Z,39.57
2023-05-19T07:11:33.773Z,39.66
2023-05-19T07:14:01.231Z,40.14
2023-05-19T07:16:32.048Z,40.39
2023-05-19T07:19:00.305Z,39.63
2023-05-19T07:21:27.743Z,38.80
2023-05-19T07:23:55.358Z,38.39
2023-05-19T07:26:22.831Z,38.72
2023-05-19T07:28:51.978Z,38.77
2023-05-19T07:31:19.857Z,39.84
2023-05-19T07:33:47.522Z,40.50
2023-05-19T07:36:15.143Z,40.10
2023-05-19T07:38:43.346Z,40.86
2023-05-19T07:41:12.459Z,41.21
2023-05-19T07:43:43.274Z,41.60
2023-05-19T07:46:12.167Z,42.75
2023-05-19T07:48:51.595Z,43.36
2023-05-19T07:51:28.263Z,43.34
2023-05-19T07:54:02.370Z,42.62
2023-05-19T07:56:30.401Z,41.91
2023-05-19T07:58:57.868Z,42.00
2023-05-19T08:01:26.273Z,42.22
2023-05-19T08:03:53.892Z,41.86
2023-05-19T08:06:21.681Z,42.17
2023-05-19T08:08:49.198Z,42.27
2023-05-19T08:11:16.937Z,42.36
2023-05-19T08:13:45.315Z,42.43
2023-05-19T08:16:12.869Z,41.46
2023-05-19T08:18:40.424Z,41.12
2023-05-19T08:21:08.108Z,40.54
2023-05-19T08:23:37.317Z,41.26
2023-05-19T08:26:05.576Z,42.42
2023-05-19T08:28:33.180Z,41.53
2023-05-19T08:31:01.197Z,40.75
2023-05-19T08:33:28.797Z,40.39
2023-05-19T08:35:58.283Z,39.88
2023-05-19T08:38:26.455Z,39.95
2023-05-19T08:40:54.216Z,39.94
2023-05-19T08:43:22.111Z,40.08
2023-05-19T08:45:50.492Z,39.84
2023-05-19T08:48:19.734Z,40.42
2023-05-19T08:50:56.681Z,38.85
2023-05-19T08:53:33.850Z,38.56
2023-05-19T08:56:10.828Z,38.29
2023-05-19T08:58:40.423Z,37.80
2023-05-19T09:01:08.657Z,39.15
2023-05-19T09:03:38.557Z,40.50
2023-05-19T09:06:08.859Z,41.09
2023-05-19T09:08:37.358Z,41.25
2023-05-19T09:11:05.021Z,40.41
2023-05-19T09:13:32.529Z,39.75
2023-05-19T09:16:00.051Z,39.76
2023-05-19T09:18:28.091Z,40.88
2023-05-19T09:21:00.438Z,41.71
2023-05-19T09:23:35.351Z,41.61
2023-05-19T09:26:08.914Z,41.73
2023-05-19T09:28:38.034Z,41.39
2023-05-19T09:31:09.965Z,41.54
2023-05-19T09:33:41.061Z,41.63
2023-05-19T09:36:11.672Z,42.68
2023-05-19T09:38:39.556Z,43.17
2023-05-19T09:41:09.252Z,42.15
2023-05-19T09:43:36.913Z,41.72
2023-05-19T09:46:06.144Z,40.87
2023-05-19T09:48:37.634Z,40.47
2023-05-19T09:51:07.995Z,40.08
2023-05-19T09:53:36.912Z,41.43
2023-05-19T09:56:04.644Z,42.36
2023-05-19T09:58:35.550Z,43.14
2023-05-19T10:01:07.751Z,43.69
2023-05-19T10:03:36.861Z,42.24
2023-05-19T10:06:05.451Z,42.44
2023-05-19T10:08:34.377Z,41.00
2023-05-19T10:11:02.552Z,42.28
2023-05-19T10:13:31.158Z,42.38
2023-05-19T10:16:00.129Z,42.29
2023-05-19T10:18:29.791Z,42.64
2023-05-19T10:20:59.144Z,43.41
2023-05-19T10:23:27.027Z,42.49
2023-05-19T10:25:58.374Z,43.06
2023-05-19T10:28:32.558Z,41.94
2023-05-19T10:31:02.906Z,40.39
2023-05-19T10:33:42.644Z,41.07
2023-05-19T10:36:31.178Z,42.40
2023-05-19T10:39:08.474Z,42.79
2023-05-19T10:42:13.918Z,43.59
2023-05-19T10:45:00.929Z,43.50
2023-05-19T10:47:30.041Z,43.43
2023-05-19T10:50:06.792Z,42.28
2023-05-19T10:52:37.419Z,42.19
2023-05-19T10:55:08.771Z,42.17
2023-05-19T10:57:36.843Z,41.71
2023-05-19T11:00:25.725Z,42.56
2023-05-19T11:02:56.417Z,42.05
2023-05-19T11:05:30.163Z,41.68
2023-05-19T11:08:06.276Z,41.32
2023-05-19T11:10:34.618Z,41.85
2023-05-19T11:13:06.351Z,41.83
2023-05-19T11:15:43.007Z,42.08
2023-05-19T11:18:11.821Z,42.95
2023-05-19T11:20:39.571Z,42.51
2023-05-19T11:23:08.409Z,42.38
2023-05-19T11:25:42.676Z,42.14
2023-05-19T11:28:16.522Z,42.48
2023-05-19T11:30:46.016Z,41.79
2023-05-19T11:33:14.240Z,42.49
2023-05-19T11:35:42.867Z,42.44
2023-05-19T11:38:11.252Z,43.34
2023-05-19T11:40:39.248Z,43.90
2023-05-19T11:43:06.824Z,43.83
2023-05-19T11:45:35.391Z,43.81
2023-05-19T11:48:03.607Z,43.31
2023-05-19T11:50:32.580Z,43.24
2023-05-19T11:53:01.397Z,42.81
2023-05-19T11:55:29.783Z,43.15
2023-05-19T12:00:37.704Z,43.02
2023-05-19T12:03:05.987Z,42.51
2023-05-19T12:05:46.052Z,41.70
2023-05-19T12:08:14.834Z,42.36
2023-05-19T12:10:42.265Z,41.98
2023-05-19T12:13:10.338Z,42.34
2023-05-19T12:15:38.995Z,42.65
2023-05-19T12:18:07.609Z,42.14
2023-05-19T12:20:36.129Z,42.37
2023-05-19T12:23:04.354Z,43.22
2023-05-19T12:25:32.680Z,44.07
2023-05-19T12:28:04.967Z,44.88
2023-05-19T12:30:34.799Z,44.59
2023-05-19T12:33:03.593Z,45.08
2023-05-19T12:35:36.291Z,44.04
2023-05-19T12:38:05.180Z,43.71
2023-05-19T12:40:36.804Z,44.38
2023-05-19T12:43:05.559Z,44.30
2023-05-19T12:45:37.387Z,44.60
2023-05-19T12:48:11.488Z,44.76
2023-05-19T12:50:39.222Z,43.98
2023-05-19T12:53:10.759Z,42.58
2023-05-19T12:55:45.795Z,43.80
2023-05-19T12:58:13.711Z,43.99
2023-05-19T13:00:47.624Z,43.82
2023-05-19T13:03:20.544Z,43.90
2023-05-19T13:05:50.561Z,43.99
2023-05-19T13:08:20.713Z,43.31
2023-05-19T13:10:49.799Z,43.69
2023-05-19T13:13:18.028Z,43.69
2023-05-19T13:15:48.980Z,43.67
2023-05-19T13:18:17.270Z,43.90
2023-05-19T13:20:46.599Z,43.53
2023-05-19T13:23:14.719Z,43.63
2023-05-19T13:25:42.615Z,43.64
2023-05-19T13:28:10.417Z,43.90
2023-05-19T13:30:40.320Z,44.09
2023-05-19T13:33:08.397Z,43.64
2023-05-19T13:35:39.172Z,43.33
2023-05-19T13:38:10.314Z,44.20
2023-05-19T13:40:39.900Z,45.31
2023-05-19T13:43:08.818Z,46.11
2023-05-19T13:45:36.983Z,46.20
2023-05-19T13:48:06.693Z,46.18
2023-05-19T13:50:34.454Z,46.49
2023-05-19T13:53:01.929Z,45.61
2023-05-19T13:55:29.931Z,44.70
2023-05-19T13:57:57.412Z,44.59
2023-05-19T14:00:25.047Z,44.56
2023-05-19T14:02:53.004Z,45.54
2023-05-19T14:05:20.567Z,46.46
2023-05-19T14:07:48.177Z,46.27
2023-05-19T14:10:15.723Z,46.81
2023-05-19T14:13:04.845Z,47.44
2023-05-19T14:15:32.524Z,48.25
2023-05-19T14:17:59.931Z,48.36
2023-05-19T14:20:29.232Z,48.14
2023-05-19T14:22:57.032Z,49.10
2023-05-19T14:25:24.577Z,49.71
2023-05-19T14:27:52.291Z,50.24
2023-05-19T14:30:19.849Z,49.97
2023-05-19T14:32:47.480Z,49.86
2023-05-19T14:35:15.348Z,50.51
2023-05-19T14:37:42.955Z,50.58
2023-05-19T14:40:10.886Z,51.01
2023-05-19T14:42:38.512Z,52.37
2023-05-19T14:45:06.511Z,53.34
2023-05-19T14:47:34.025Z,53.18
2023-05-19T14:50:01.589Z,52.90
2023-05-19T14:52:29.123Z,53.30
2023-05-19T14:54:57.196Z,53.44
2023-05-19T14:57:24.652Z,52.49
2023-05-19T14:59:52.177Z,52.37
2023-05-19T15:02:19.586Z,53.43
2023-05-19T15:04:47.077Z,54.07
2023-05-19T15:07:14.787Z,54.36
2023-05-19T15:09:42.257Z,54.82
2023-05-19T15:12:09.673Z,55.39
2023-05-19T15:14:37.176Z,55.44
2023-05-19T15:17:05.983Z,55.05
2023-05-19T15:19:33.726Z,54.64
2023-05-19T15:22:01.286Z,54.76
2023-05-19T15:24:28.764Z,55.36
2023-05-19T15:26:56.292Z,54.45
2023-05-19T15:29:23.877Z,55.00
2023-05-19T15:31:54.235Z,56.17
2023-05-19T15:34:21.858Z,54.21
2023-05-19T15:36:49.300Z,53.95
2023-05-19T15:39:16.996Z,53.24
2023-05-19T15:41:44.815Z,53.74
2023-05-19T15:44:12.644Z,54.40
2023-05-19T15:46:40.365Z,54.51
2023-05-19T15:49:08.027Z,53.12
2023-05-19T15:51:35.751Z,52.20
2023-05-19T15:54:03.345Z,51.89
2023-05-19T15:56:30.888Z,49.38
2023-05-19T15:58:58.352Z,48.90
2023-05-19T16:01:26.526Z,52.92
2023-05-19T16:03:54.477Z,52.60
2023-05-19T16:06:22.050Z,51.64
2023-05-19T16:08:49.594Z,51.22
2023-05-19T16:11:18.344Z,50.93
2023-05-19T16:13:45.917Z,50.27
2023-05-19T16:16:13.546Z,48.50
2023-05-19T16:18:41.190Z,46.36
2023-05-19T16:21:08.977Z,46.96
2023-05-19T16:23:36.458Z,46.70
2023-05-19T16:26:03.882Z,46.24
2023-05-19T16:28:32.514Z,46.18
2023-05-19T16:31:00.395Z,47.44
2023-05-19T16:33:28.397Z,48.54
2023-05-19T16:35:56.361Z,47.44
2023-05-19T16:38:23.982Z,46.95
2023-05-19T16:40:51.397Z,48.03
2023-05-19T16:43:19.072Z,49.27
2023-05-19T16:45:46.622Z,49.96
2023-05-19T16:48:14.199Z,51.01
2023-05-19T16:50:41.726Z,50.70
2023-05-19T16:53:09.199Z,51.23
2023-05-19T16:55:36.616Z,52.11
2023-05-19T16:58:04.158Z,54.15
2023-05-19T17:00:31.966Z,57.44
2023-05-19T17:02:59.893Z,59.94
2023-05-19T17:05:27.912Z,61.13
2023-05-19T17:07:55.572Z,61.73
2023-05-19T17:10:22.987Z,61.89
2023-05-19T17:12:50.744Z,62.62
2023-05-19T17:15:18.459Z,62.44
2023-05-19T17:17:46.002Z,62.78
2023-05-19T17:20:13.732Z,61.78
2023-05-19T17:22:41.275Z,61.18
2023-05-19T17:25:09.318Z,60.66
2023-05-19T17:27:36.844Z,60.26
2023-05-19T17:30:04.678Z,59.71
2023-05-19T17:32:36.005Z,58.95
2023-05-19T17:35:05.521Z,57.87
2023-05-19T17:37:33.338Z,56.01
2023-05-19T17:40:01.115Z,56.43
2023-05-19T17:42:29.310Z,56.55
2023-05-19T17:44:56.942Z,56.20
2023-05-19T17:47:24.605Z,56.23
2023-05-19T17:49:53.175Z,56.48
2023-05-19T17:52:21.643Z,54.81
2023-05-19T17:54:50.584Z,53.76
2023-05-19T17:57:18.682Z,53.38
2023-05-19T17:59:46.606Z,53.01
2023-05-19T18:02:15.236Z,52.29
2023-05-19T18:04:43.172Z,51.64
2023-05-19T18:07:10.901Z,50.93
2023-05-19T18:09:45.664Z,50.25
2023-05-19T18:12:13.130Z,51.05
2023-05-19T18:14:40.673Z,50.96
2023-05-19T18:17:08.140Z,51.43
2023-05-19T18:19:35.638Z,51.61
2023-05-19T18:22:03.658Z,51.95
2023-05-19T18:24:31.215Z,52.55
2023-05-19T18:26:58.854Z,53.01
2023-05-19T18:29:26.326Z,52.33
2023-05-19T18:31:53.903Z,52.12
2023-05-19T18:34:21.502Z,51.74
2023-05-19T18:36:48.961Z,51.55
2023-05-19T18:39:16.639Z,51.39
2023-05-19T18:41:44.134Z,51.17
2023-05-19T18:44:11.865Z,50.84
2023-05-19T18:46:39.408Z,50.75
2023-05-19T18:49:07.003Z,50.99
2023-05-19T18:51:36.154Z,50.59
2023-05-19T18:54:03.674Z,50.78
2023-05-19T18:56:33.320Z,51.23
2023-05-19T18:59:00.807Z,50.52
2023-05-19T19:01:28.694Z,49.88
2023-05-19T19:03:56.386Z,50.13
2023-05-19T19:06:24.000Z,49.88
2023-05-19T19:08:51.896Z,50.38
2023-05-19T19:11:19.479Z,50.17
2023-05-19T19:13:51.019Z,50.23
2023-05-19T19:16:18.555Z,50.34
2023-05-19T19:18:46.099Z,50.47
2023-05-19T19:21:13.710Z,50.15
2023-05-19T19:23:41.133Z,50.48
2023-05-19T19:26:09.603Z,50.73
2023-05-19T19:28:37.107Z,50.42
2023-05-19T19:31:04.731Z,50.74
2023-05-19T19:33:32.262Z,51.30
2023-05-19T19:35:59.873Z,51.62
2023-05-19T19:38:27.328Z,51.89
2023-05-19T19:40:54.868Z,51.96
2023-05-19T19:43:22.264Z,52.96
2023-05-19T19:46:01.372Z,52.96
2023-05-19T19:48:29.104Z,52.91
2023-05-19T19:50:57.569Z,53.05
2023-05-19T19:53:25.293Z,53.60
2023-05-19T19:55:59.668Z,53.74
2023-05-19T19:58:28.393Z,54.27
2023-05-19T20:00:57.434Z,54.17
2023-05-19T20:03:25.959Z,54.05
2023-05-19T20:05:55.765Z,54.49
2023-05-19T20:08:24.631Z,54.49
2023-05-19T20:10:52.231Z,54.74
2023-05-19T20:13:20.237Z,54.19
2023-05-19T20:15:47.880Z,54.84
2023-05-19T20:18:15.546Z,54.85
2023-05-19T20:20:43.357Z,54.83
2023-05-19T20:23:10.977Z,55.34
2023-05-19T20:25:51.022Z,55.73
2023-05-19T20:28:29.235Z,54.48
2023-05-19T20:30:56.805Z,54.27
2023-05-19T20:33:24.444Z,53.98
2023-05-19T20:35:51.915Z,54.75
2023-05-19T20:38:19.419Z,54.41
2023-05-19T20:40:47.825Z,54.64
2023-05-19T20:43:15.541Z,53.99
2023-05-19T20:45:44.494Z,54.01
2023-05-19T20:48:12.172Z,54.20
2023-05-19T20:50:39.832Z,53.35
2023-05-19T20:53:07.558Z,53.73
2023-05-19T20:55:37.951Z,54.32
2023-05-19T20:58:05.644Z,55.37
2023-05-19T21:00:33.716Z,55.32
2023-05-19T21:03:01.857Z,56.19
2023-05-19T21:05:29.536Z,55.99
2023-05-19T21:07:57.224Z,56.30
2023-05-19T21:10:24.765Z,56.30
2023-05-19T21:12:52.328Z,56.53
2023-05-19T21:15:19.932Z,56.59
2023-05-19T21:17:47.753Z,57.54
2023-05-19T21:20:15.227Z,56.97
2023-05-19T21:22:42.901Z,57.14
2023-05-19T21:25:10.511Z,57.21
2023-05-19T21:27:39.667Z,57.70
2023-05-19T21:30:08.003Z,57.88
2023-05-19T21:32:35.794Z,58.47
2023-05-19T21:35:03.435Z,58.57
2023-05-19T21:37:31.131Z,59.04
2023-05-19T21:39:58.691Z,59.25
2023-05-19T21:42:26.323Z,60.54
2023-05-19T21:44:53.878Z,60.35
2023-05-19T21:47:21.417Z,61.07
2023-05-19T21:49:48.876Z,61.45
2023-05-19T21:52:16.300Z,61.96
2023-05-19T21:54:43.598Z,62.27
2023-05-19T21:57:12.621Z,62.64
2023-05-19T21:59:40.300Z,63.37
2023-05-19T22:02:08.064Z,63.85
2023-05-19T22:04:35.985Z,64.49
2023-05-19T22:07:03.604Z,65.11
2023-05-19T22:09:31.448Z,65.01
2023-05-19T22:11:59.154Z,65.53
2023-05-19T22:14:26.696Z,65.84
2023-05-19T22:16:54.254Z,66.50
2023-05-19T22:19:21.860Z,66.23
2023-05-19T22:21:53.682Z,66.44
2023-05-19T22:24:26.255Z,66.74
2023-05-19T22:26:53.696Z,66.54
2023-05-19T22:29:21.282Z,66.64
2023-05-19T22:31:48.712Z,66.72
2023-05-19T22:34:16.421Z,66.88
2023-05-19T22:36:46.034Z,67.53
2023-05-19T22:39:13.655Z,67.82
2023-05-19T22:41:41.182Z,68.03
2023-05-19T22:44:10.460Z,68.56
2023-05-19T22:46:37.969Z,68.80
2023-05-19T22:49:05.560Z,68.20
2023-05-19T22:51:33.586Z,68.93
2023-05-19T22:54:01.079Z,69.04
2023-05-19T22:56:28.597Z,68.69
2023-05-19T22:58:56.293Z,68.58
2023-05-19T23:01:23.859Z,69.04
2023-05-19T23:03:51.588Z,69.12
2023-05-19T23:06:19.090Z,69.35
2023-05-19T23:08:47.229Z,70.88
2023-05-19T23:11:14.737Z,70.65
2023-05-19T23:13:42.325Z,71.52
2023-05-19T23:16:09.733Z,71.54
2023-05-19T23:18:37.220Z,71.68
2023-05-19T23:21:04.649Z,72.90
2023-05-19T23:23:32.197Z,73.01
2023-05-19T23:25:59.690Z,73.99
2023-05-19T23:28:27.192Z,73.95
2023-05-19T23:30:55.098Z,74.62
2023-05-19T23:33:23.027Z,75.25
2023-05-19T23:35:50.425Z,76.05
2023-05-19T23:38:17.914Z,76.16
2023-05-19T23:40:45.505Z,77.57
2023-05-19T23:43:13.347Z,78.01
2023-05-19T23:45:41.094Z,79.26
2023-05-19T23:48:08.808Z,79.18
2023-05-19T23:50:36.387Z,79.99
2023-05-19T23:53:03.997Z,79.19
2023-05-19T23:55:31.759Z,80.54
2023-05-19T23:57:59.936Z,81.42
